Time;durP1;ratioP1;P1;durP2;ratioP2;P2;SDS_P1;SDS_P2;PMS_P1;PMS_P2;Temp;Humidity;BMP_temperature;BMP_pressure;BME280_temperature;BME280_humidity;BME280_pressure;Samples;Min_cycle;Max_cycle;Signal;HPM_P1;HPM_P2
2021/05/23 00:00:37;;;;;;;1.23;0.90;;;20.70;59.50;;;;;;5018027;28;20598;-76
2021/05/23 00:03:10;;;;;;;1.10;0.60;;;20.70;59.40;;;;;;5024919;28;20207;-75
2021/05/23 00:05:39;;;;;;;0.80;0.80;;;20.70;59.40;;;;;;5023804;28;20203;-75
2021/05/23 00:08:09;;;;;;;0.60;0.60;;;20.60;59.30;;;;;;5021607;28;20265;-75
2021/05/23 00:10:41;;;;;;;0.80;0.70;;;20.70;59.40;;;;;;5024841;28;20199;-76
2021/05/23 00:13:10;;;;;;;1.30;0.67;;;20.70;59.30;;;;;;5006864;28;20630;-75
2021/05/23 00:15:42;;;;;;;0.50;0.50;;;20.60;59.30;;;;;;5026337;28;20202;-75
2021/05/23 00:18:14;;;;;;;2.23;0.60;;;20.60;59.30;;;;;;5022309;28;20663;-75
2021/05/23 00:20:41;;;;;;;0.60;0.47;;;20.60;59.30;;;;;;5025917;28;20630;-75
2021/05/23 00:23:10;;;;;;;1.17;0.87;;;20.60;59.30;;;;;;5021781;28;20671;-76
2021/05/23 00:25:38;;;;;;;0.70;0.70;;;20.60;59.30;;;;;;5024148;28;20242;-76
2021/05/23 00:28:07;;;;;;;0.70;0.60;;;20.60;59.20;;;;;;5021423;28;20195;-76
2021/05/23 00:30:34;;;;;;;3.03;0.70;;;20.60;59.20;;;;;;5025897;28;20222;-76
2021/05/23 00:33:03;;;;;;;0.80;0.60;;;20.60;59.30;;;;;;5021925;28;20667;-75
2021/05/23 00:35:30;;;;;;;1.47;0.60;;;20.60;59.20;;;;;;5025393;28;20203;-75
2021/05/23 00:37:57;;;;;;;1.40;0.60;;;20.50;59.10;;;;;;5026395;28;20202;-76
2021/05/23 00:40:24;;;;;;;0.70;0.70;;;20.50;59.10;;;;;;5024457;28;20733;-75
2021/05/23 00:42:51;;;;;;;0.67;0.67;;;20.50;59.10;;;;;;5022042;28;20223;-76
2021/05/23 00:45:18;;;;;;;0.80;0.70;;;20.50;59.10;;;;;;5024134;28;20219;-75
2021/05/23 00:47:46;;;;;;;1.57;0.70;;;20.50;59.10;;;;;;5024578;28;20201;-76
2021/05/23 00:50:19;;;;;;;0.67;0.53;;;20.50;59.10;;;;;;5020578;28;20574;-76
2021/05/23 00:52:46;;;;;;;0.80;0.60;;;20.50;59.10;;;;;;5024461;28;20206;-76
2021/05/23 00:55:13;;;;;;;1.00;0.70;;;20.50;59.10;;;;;;5023927;28;20218;-77
2021/05/23 00:57:46;;;;;;;1.00;0.70;;;20.50;59.00;;;;;;5024056;28;20206;-75
2021/05/23 01:00:39;;;;;;;1.43;0.60;;;20.50;59.10;;;;;;5021283;28;20719;-75
2021/05/23 01:03:27;;;;;;;0.70;0.60;;;20.50;59.00;;;;;;5025525;28;20573;-75
2021/05/23 01:06:04;;;;;;;0.60;0.60;;;20.50;59.00;;;;;;5021794;28;20215;-75
2021/05/23 01:08:32;;;;;;;1.13;0.50;;;20.40;58.90;;;;;;5022315;28;20217;-75
2021/05/23 01:11:16;;;;;;;1.50;0.50;;;20.40;58.90;;;;;;5019085;28;20245;-74
2021/05/23 01:13:58;;;;;;;0.77;0.63;;;20.40;58.90;;;;;;5022541;28;20782;-74
2021/05/23 01:16:55;;;;;;;0.50;0.50;;;20.40;58.90;;;;;;5026149;28;20201;-74
2021/05/23 01:19:28;;;;;;;1.10;0.60;;;20.40;58.80;;;;;;5012495;28;20203;-74
2021/05/23 01:22:09;;;;;;;1.00;0.73;;;20.40;58.80;;;;;;5026616;28;20593;-74
2021/05/23 01:24:47;;;;;;;0.87;0.60;;;20.40;58.80;;;;;;5019075;28;20231;-74
2021/05/23 01:27:26;;;;;;;0.60;0.60;;;20.40;58.80;;;;;;5028329;28;20205;-74
2021/05/23 01:29:54;;;;;;;0.60;0.60;;;20.40;58.80;;;;;;5027094;28;20194;-74
2021/05/23 01:32:21;;;;;;;1.30;0.87;;;20.40;58.80;;;;;;5026066;28;20203;-74
2021/05/23 01:34:48;;;;;;;0.60;0.60;;;20.40;58.70;;;;;;5027477;28;20187;-74
2021/05/23 01:37:15;;;;;;;0.90;0.80;;;20.30;58.70;;;;;;5027395;28;20202;-74
2021/05/23 01:39:42;;;;;;;1.23;0.60;;;20.40;58.70;;;;;;5027844;28;20202;-73
2021/05/23 01:42:11;;;;;;;1.73;0.80;;;20.40;58.70;;;;;;5024323;28;20231;-77
2021/05/23 01:44:38;;;;;;;1.13;0.80;;;20.30;58.60;;;;;;5009326;28;20500;-76
2021/05/23 01:47:05;;;;;;;1.97;0.90;;;20.30;58.60;;;;;;5023585;28;20219;-77
2021/05/23 01:49:32;;;;;;;1.80;0.70;;;20.30;58.50;;;;;;5028403;28;20209;-76
2021/05/23 01:51:58;;;;;;;1.47;0.70;;;20.30;58.60;;;;;;5023468;28;20200;-76
2021/05/23 01:54:25;;;;;;;0.80;0.80;;;20.30;58.60;;;;;;5027166;28;20203;-76
2021/05/23 01:56:52;;;;;;;2.30;0.73;;;20.30;58.50;;;;;;5024459;28;20199;-75
2021/05/23 01:59:19;;;;;;;0.80;0.80;;;20.30;58.50;;;;;;5011264;28;20309;-76
2021/05/23 02:01:46;;;;;;;0.50;0.50;;;20.30;58.50;;;;;;5023828;28;20211;-76
2021/05/23 02:04:13;;;;;;;2.00;0.67;;;20.30;58.50;;;;;;5028454;28;20199;-76
2021/05/23 02:06:39;;;;;;;1.77;0.77;;;20.30;58.50;;;;;;5023567;28;20514;-76
2021/05/23 02:09:06;;;;;;;0.90;0.80;;;20.30;58.50;;;;;;5028218;28;20207;-76
2021/05/23 02:11:33;;;;;;;0.80;0.70;;;20.30;58.40;;;;;;5025549;28;20206;-76
2021/05/23 02:14:00;;;;;;;1.37;0.83;;;20.30;58.40;;;;;;5011411;28;20222;-76
2021/05/23 02:16:27;;;;;;;2.23;0.80;;;20.30;58.40;;;;;;5029280;28;20209;-77
2021/05/23 02:18:53;;;;;;;0.80;0.70;;;20.30;58.40;;;;;;5030349;28;20207;-76
2021/05/23 02:21:20;;;;;;;1.20;0.60;;;20.30;58.40;;;;;;5024190;28;20226;-76
2021/05/23 02:23:50;;;;;;;1.33;0.90;;;20.30;58.40;;;;;;5026531;28;20219;-75
2021/05/23 02:26:17;;;;;;;0.80;0.70;;;20.30;58.40;;;;;;5026085;28;20603;-75
2021/05/23 02:28:43;;;;;;;1.30;0.93;;;20.30;58.40;;;;;;5026127;28;20659;-75
2021/05/23 02:31:11;;;;;;;0.60;0.60;;;20.20;58.30;;;;;;5026084;28;20202;-75
2021/05/23 02:33:38;;;;;;;1.00;0.70;;;20.30;58.30;;;;;;5025732;28;20684;-76
2021/05/23 02:36:05;;;;;;;1.13;0.70;;;20.30;58.30;;;;;;5026922;28;20318;-76
2021/05/23 02:38:32;;;;;;;0.80;0.60;;;20.30;58.30;;;;;;5023849;28;20207;-76
2021/05/23 02:40:59;;;;;;;1.37;0.70;;;20.20;58.30;;;;;;5009653;28;20347;-76
2021/05/23 02:43:26;;;;;;;0.70;0.60;;;20.20;58.20;;;;;;5024828;28;20211;-76
2021/05/23 02:45:53;;;;;;;1.23;0.80;;;20.20;58.20;;;;;;5027491;28;20206;-76
2021/05/23 02:48:20;;;;;;;1.17;0.80;;;20.20;58.20;;;;;;5023082;28;20207;-76
2021/05/23 02:50:51;;;;;;;1.03;1.00;;;20.20;58.10;;;;;;5028510;28;20206;-76
2021/05/23 02:53:18;;;;;;;1.33;0.80;;;20.20;58.10;;;;;;5024024;28;20214;-76
2021/05/23 02:55:48;;;;;;;0.83;0.70;;;20.20;58.10;;;;;;5027773;28;20206;-76
2021/05/23 02:58:16;;;;;;;0.60;0.60;;;20.20;58.10;;;;;;5023207;28;20202;-76
2021/05/23 03:00:43;;;;;;;1.70;0.93;;;20.20;58.10;;;;;;5027394;28;20357;-76
2021/05/23 03:03:11;;;;;;;0.67;0.67;;;20.10;58.10;;;;;;5021956;28;20641;-76
2021/05/23 03:05:39;;;;;;;1.33;1.00;;;20.20;58.10;;;;;;5027437;28;20221;-76
2021/05/23 03:08:07;;;;;;;1.07;0.80;;;20.20;58.10;;;;;;5022199;28;20195;-76
2021/05/23 03:10:43;;;;;;;1.97;1.10;;;20.20;58.70;;;;;;5005282;28;20206;-76
2021/05/23 03:13:11;;;;;;;1.37;0.93;;;20.20;58.10;;;;;;5025058;28;20209;-76
2021/05/23 03:15:38;;;;;;;1.67;1.20;;;20.20;58.00;;;;;;5025482;28;20211;-77
2021/05/23 03:18:06;;;;;;;1.20;1.00;;;20.10;57.90;;;;;;5023465;28;20195;-77
2021/05/23 03:20:34;;;;;;;1.33;0.93;;;20.10;57.90;;;;;;5025337;28;20207;-77
2021/05/23 03:23:01;;;;;;;1.10;1.00;;;20.10;58.00;;;;;;5024537;28;20202;-75
2021/05/23 03:25:29;;;;;;;1.10;0.93;;;20.10;57.90;;;;;;5006178;28;20245;-76
2021/05/23 03:27:57;;;;;;;1.10;1.00;;;20.10;57.90;;;;;;5023245;28;20206;-76
2021/05/23 03:30:30;;;;;;;0.90;0.90;;;20.10;57.90;;;;;;5008518;28;20229;-76
2021/05/23 03:32:57;;;;;;;1.03;0.90;;;20.10;57.90;;;;;;5026406;28;20659;-76
2021/05/23 03:35:24;;;;;;;1.10;1.00;;;20.10;57.90;;;;;;5023686;28;20204;-76
2021/05/23 03:37:51;;;;;;;1.10;1.00;;;20.10;57.90;;;;;;5009767;28;20303;-76
2021/05/23 03:40:20;;;;;;;1.43;1.00;;;20.10;57.90;;;;;;5021094;28;20192;-76
2021/05/23 03:42:48;;;;;;;1.83;1.20;;;20.10;57.90;;;;;;5024520;28;20588;-76
2021/05/23 03:45:18;;;;;;;1.20;1.10;;;20.10;57.90;;;;;;5014497;28;20285;-76
2021/05/23 03:47:46;;;;;;;1.20;1.10;;;20.10;57.80;;;;;;5041598;28;20196;-76
2021/05/23 03:50:22;;;;;;;1.20;1.00;;;20.10;57.80;;;;;;5029696;28;20211;-76
2021/05/23 03:52:52;;;;;;;1.60;1.20;;;20.10;57.80;;;;;;5033432;28;20301;-76
2021/05/23 03:55:21;;;;;;;1.33;1.10;;;20.10;57.80;;;;;;5024029;28;20244;-76
2021/05/23 03:57:48;;;;;;;1.53;0.97;;;20.10;57.80;;;;;;5028149;28;20204;-76
2021/05/23 04:00:17;;;;;;;1.20;1.10;;;20.10;57.80;;;;;;5025726;28;20659;-76
2021/05/23 04:02:48;;;;;;;1.10;1.00;;;20.10;57.80;;;;;;5026402;28;20239;-75
2021/05/23 04:05:16;;;;;;;2.03;1.17;;;20.10;57.80;;;;;;5021636;28;20194;-75
2021/05/23 04:07:43;;;;;;;1.20;1.10;;;20.10;57.80;;;;;;5025790;28;20415;-76
2021/05/23 04:10:13;;;;;;;1.50;1.27;;;20.10;57.70;;;;;;5021960;28;20207;-75
2021/05/23 04:12:43;;;;;;;2.03;1.30;;;20.10;57.70;;;;;;5024288;28;20231;-75
2021/05/23 04:15:10;;;;;;;1.10;1.00;;;20.10;57.70;;;;;;5024641;28;20250;-75
2021/05/23 04:17:37;;;;;;;2.27;1.10;;;20.00;57.60;;;;;;5027107;28;20214;-76
2021/05/23 04:20:07;;;;;;;1.37;1.20;;;20.10;57.60;;;;;;5025642;28;20210;-76
2021/05/23 04:22:35;;;;;;;1.43;1.33;;;20.10;57.70;;;;;;5023091;28;20611;-75
2021/05/23 04:25:09;;;;;;;1.20;1.10;;;20.00;57.60;;;;;;5009279;28;20231;-75
2021/05/23 04:27:36;;;;;;;2.50;1.37;;;20.00;57.60;;;;;;5023035;28;20233;-75
2021/05/23 04:30:06;;;;;;;1.17;0.93;;;20.00;57.50;;;;;;5026415;28;20199;-75
2021/05/23 04:32:35;;;;;;;1.50;1.40;;;20.10;57.60;;;;;;5020972;28;20202;-75
2021/05/23 04:35:04;;;;;;;1.20;1.10;;;20.00;57.40;;;;;;5012422;28;20643;-75
2021/05/23 04:37:31;;;;;;;1.77;1.43;;;20.00;57.50;;;;;;5023493;28;20764;-75
2021/05/23 04:39:58;;;;;;;1.63;1.27;;;20.00;57.40;;;;;;5025050;28;20203;-76
2021/05/23 04:42:25;;;;;;;1.57;1.40;;;20.00;57.40;;;;;;5016678;28;20227;-76
2021/05/23 04:45:13;;;;;;;1.47;1.37;;;20.00;57.40;;;;;;5017322;28;20190;-75
2021/05/23 04:47:39;;;;;;;1.33;1.23;;;20.00;57.40;;;;;;5023223;28;20568;-75
2021/05/23 04:50:08;;;;;;;1.77;1.30;;;20.00;57.40;;;;;;5025392;28;20211;-76
2021/05/23 04:52:35;;;;;;;1.70;1.20;;;20.00;57.30;;;;;;5012053;28;20242;-75
2021/05/23 04:55:04;;;;;;;1.50;1.40;;;20.00;57.40;;;;;;5020595;28;20634;-76
2021/05/23 04:57:31;;;;;;;1.60;1.37;;;20.00;57.30;;;;;;5008044;28;20213;-75
2021/05/23 04:59:59;;;;;;;3.30;1.40;;;20.00;57.40;;;;;;4999352;28;20659;-75
2021/05/23 05:02:26;;;;;;;1.30;1.10;;;20.00;57.40;;;;;;5021296;28;20230;-75
2021/05/23 05:04:53;;;;;;;1.80;1.17;;;20.00;57.30;;;;;;5022091;28;20199;-74
2021/05/23 05:07:20;;;;;;;1.43;1.10;;;20.00;57.30;;;;;;5006468;28;20207;-75
2021/05/23 05:09:47;;;;;;;1.37;1.10;;;20.00;57.20;;;;;;5021351;28;20667;-75
2021/05/23 05:12:14;;;;;;;2.23;1.17;;;20.00;57.20;;;;;;5021381;28;20199;-75
2021/05/23 05:14:40;;;;;;;1.63;1.07;;;20.00;57.20;;;;;;5021159;28;20215;-75
2021/05/23 05:17:07;;;;;;;2.17;1.23;;;19.90;57.20;;;;;;5032989;28;20671;-75
2021/05/23 05:19:34;;;;;;;2.50;1.10;;;19.90;57.00;;;;;;5024541;28;20195;-75
2021/05/23 05:22:01;;;;;;;1.67;1.50;;;20.00;57.10;;;;;;5023957;28;20285;-75
2021/05/23 05:24:28;;;;;;;1.10;0.90;;;20.00;57.10;;;;;;5023020;28;20226;-75
2021/05/23 05:26:55;;;;;;;1.97;1.00;;;19.90;57.00;;;;;;5022575;28;20207;-75
2021/05/23 05:29:22;;;;;;;2.33;1.30;;;20.00;57.00;;;;;;5022234;28;20274;-75
2021/05/23 05:31:49;;;;;;;2.07;1.50;;;20.00;57.00;;;;;;5025099;28;20193;-75
2021/05/23 05:34:17;;;;;;;1.93;1.47;;;19.90;56.90;;;;;;5022671;28;20203;-74
2021/05/23 05:36:44;;;;;;;2.70;1.20;;;19.90;56.90;;;;;;5023021;28;20215;-75
2021/05/23 05:39:12;;;;;;;2.10;1.20;;;19.90;56.80;;;;;;5020880;28;20199;-75
2021/05/23 05:41:39;;;;;;;3.07;1.10;;;19.90;56.80;;;;;;5024643;28;20318;-76
2021/05/23 05:44:06;;;;;;;1.60;1.20;;;19.90;56.80;;;;;;5017300;28;20195;-75
2021/05/23 05:46:33;;;;;;;2.03;1.27;;;19.90;56.80;;;;;;5025124;28;20407;-75
2021/05/23 05:49:00;;;;;;;2.63;1.40;;;19.90;56.80;;;;;;5023507;28;20710;-79
2021/05/23 05:51:27;;;;;;;1.20;1.00;;;19.90;56.70;;;;;;5007608;28;20217;-78
2021/05/23 05:53:54;;;;;;;15.67;3.20;;;19.90;56.80;;;;;;5010294;28;20807;-77
2021/05/23 05:56:21;;;;;;;41.40;7.50;;;19.90;56.50;;;;;;5019685;28;20199;-75
2021/05/23 05:58:49;;;;;;;65.53;10.63;;;20.00;56.60;;;;;;5033664;28;20266;-75
2021/05/23 06:01:15;;;;;;;34.57;7.83;;;19.90;56.80;;;;;;5023791;28;20207;-74
2021/05/23 06:03:42;;;;;;;41.87;8.40;;;19.90;56.70;;;;;;5021075;28;20238;-75
2021/05/23 06:06:09;;;;;;;35.00;7.17;;;19.90;56.70;;;;;;5021494;28;20987;-75
2021/05/23 06:08:36;;;;;;;27.63;6.43;;;19.90;56.60;;;;;;5027285;28;20198;-74
2021/05/23 06:11:02;;;;;;;23.47;6.37;;;19.90;56.70;;;;;;5017557;28;20214;-74
2021/05/23 06:13:29;;;;;;;27.27;6.10;;;19.90;56.60;;;;;;5008663;28;20241;-74
2021/05/23 06:15:56;;;;;;;21.20;5.27;;;19.90;56.50;;;;;;5029870;28;20202;-75
2021/05/23 06:18:25;;;;;;;21.10;4.83;;;19.90;56.50;;;;;;5016624;28;20650;-75
2021/05/23 06:20:53;;;;;;;21.17;4.77;;;19.90;56.50;;;;;;5025876;28;20199;-74
2021/05/23 06:23:20;;;;;;;17.70;4.10;;;20.00;56.50;;;;;;5027989;28;20736;-75
2021/05/23 06:25:48;;;;;;;14.27;4.43;;;20.00;56.50;;;;;;5025509;28;20214;-75
2021/05/23 06:28:15;;;;;;;13.47;4.27;;;19.90;56.40;;;;;;5027885;28;20211;-74
2021/05/23 06:30:42;;;;;;;14.47;3.60;;;19.90;56.40;;;;;;5026806;28;20269;-74
2021/05/23 06:33:09;;;;;;;9.93;3.50;;;20.00;56.40;;;;;;5026661;28;20642;-74
2021/05/23 06:35:36;;;;;;;12.60;3.20;;;19.90;56.20;;;;;;5024382;28;20298;-74
2021/05/23 06:38:03;;;;;;;9.73;3.47;;;20.00;56.40;;;;;;5021365;28;20309;-75
2021/05/23 06:40:30;;;;;;;9.67;3.50;;;20.00;56.30;;;;;;5025937;28;20814;-74
2021/05/23 06:42:57;;;;;;;13.17;4.10;;;20.00;56.30;;;;;;5026604;28;20223;-76
2021/05/23 06:45:24;;;;;;;9.00;3.00;;;20.00;56.20;;;;;;5026092;28;20230;-75
2021/05/23 06:47:51;;;;;;;9.40;3.17;;;20.00;56.30;;;;;;5025431;28;20237;-74
2021/05/23 06:50:17;;;;;;;5.60;2.33;;;20.00;56.20;;;;;;5030001;28;20211;-75
2021/05/23 06:52:45;;;;;;;12.57;3.07;;;20.00;56.30;;;;;;5021669;28;20207;-77
2021/05/23 06:55:12;;;;;;;11.03;2.87;;;20.00;57.60;;;;;;5026075;28;20680;-77
2021/05/23 06:57:39;;;;;;;4.93;2.40;;;20.00;56.80;;;;;;5022518;28;20682;-78
2021/05/23 07:00:08;;;;;;;5.00;2.70;;;20.10;56.90;;;;;;5027215;28;20205;-78
2021/05/23 07:02:35;;;;;;;2.73;1.70;;;20.10;56.70;;;;;;5024742;28;20219;-80
2021/05/23 07:05:03;;;;;;;7.73;2.10;;;20.10;56.60;;;;;;5027049;28;20191;-79
2021/05/23 07:07:31;;;;;;;7.17;1.87;;;20.20;56.50;;;;;;5024523;28;20206;-79
2021/05/23 07:09:59;;;;;;;8.27;2.17;;;20.20;56.50;;;;;;5024068;28;20195;-81
2021/05/23 07:12:26;;;;;;;6.63;2.10;;;20.30;56.50;;;;;;5025346;28;20208;-82
2021/05/23 07:14:53;;;;;;;3.83;1.90;;;20.30;56.40;;;;;;5024989;28;20199;-81
2021/05/23 07:17:20;;;;;;;6.17;2.10;;;20.40;56.20;;;;;;5024812;28;20207;-81
2021/05/23 07:19:47;;;;;;;6.37;1.90;;;20.40;56.00;;;;;;5024710;28;20849;-78
2021/05/23 07:22:14;;;;;;;4.20;1.80;;;20.40;55.90;;;;;;5018781;28;20265;-75
2021/05/23 07:24:41;;;;;;;5.93;1.90;;;20.50;55.90;;;;;;5024918;28;20223;-76
2021/05/23 07:27:07;;;;;;;2.47;1.37;;;20.50;55.50;;;;;;5022486;28;20203;-77
2021/05/23 07:29:34;;;;;;;3.77;1.50;;;20.50;55.60;;;;;;5025742;28;20728;-83
2021/05/23 07:32:03;;;;;;;2.73;1.50;;;20.60;55.50;;;;;;5023686;28;20244;-81
2021/05/23 07:34:30;;;;;;;4.87;1.40;;;20.60;55.30;;;;;;5028219;28;20215;-77
2021/05/23 07:36:57;;;;;;;2.60;1.50;;;20.60;55.10;;;;;;5020968;28;20192;-77
2021/05/23 07:39:24;;;;;;;3.63;1.50;;;20.70;55.20;;;;;;5023004;28;20207;-77
2021/05/23 07:41:51;;;;;;;3.40;1.50;;;20.70;55.10;;;;;;5022519;28;20718;-75
2021/05/23 07:44:18;;;;;;;5.47;1.43;;;20.80;55.10;;;;;;5024114;28;20204;-75
2021/05/23 07:46:47;;;;;;;3.07;1.40;;;20.70;55.10;;;;;;5022182;28;20206;-76
2021/05/23 07:49:16;;;;;;;4.77;1.37;;;20.80;54.80;;;;;;5004847;28;20214;-76
2021/05/23 07:51:44;;;;;;;3.83;1.90;;;20.80;54.80;;;;;;5018535;28;20253;-81
2021/05/23 07:54:14;;;;;;;2.83;1.30;;;20.70;54.60;;;;;;5024434;28;20200;-81
2021/05/23 07:56:42;;;;;;;2.83;1.37;;;20.80;54.90;;;;;;5007219;28;20222;-80
2021/05/23 07:59:08;;;;;;;4.13;1.90;;;20.90;54.70;;;;;;5024352;28;20195;-78
2021/05/23 08:01:35;;;;;;;3.13;1.73;;;20.90;54.80;;;;;;5021654;28;20199;-79
2021/05/23 08:04:03;;;;;;;2.10;1.07;;;20.90;54.70;;;;;;5021732;28;20218;-78
2021/05/23 08:06:31;;;;;;;3.30;1.40;;;20.90;54.60;;;;;;5020247;28;20244;-80
2021/05/23 08:08:58;;;;;;;2.83;1.30;;;20.90;54.50;;;;;;5024664;28;20587;-83
2021/05/23 08:11:25;;;;;;;4.50;1.50;;;21.00;54.40;;;;;;5023862;28;20729;-81
2021/05/23 08:13:52;;;;;;;4.17;1.47;;;21.00;54.90;;;;;;5026779;28;20188;-85
2021/05/23 08:16:19;;;;;;;5.30;1.40;;;21.00;54.40;;;;;;5025843;28;20246;-82
2021/05/23 08:18:46;;;;;;;3.33;1.50;;;21.10;54.30;;;;;;5006873;28;20725;-80
2021/05/23 08:21:13;;;;;;;3.90;1.23;;;21.10;54.20;;;;;;5024300;28;20244;-79
2021/05/23 08:23:42;;;;;;;8.57;1.90;;;21.10;54.10;;;;;;5025413;28;20226;-79
2021/05/23 08:26:09;;;;;;;3.47;1.30;;;21.10;54.10;;;;;;5021737;28;20233;-78
2021/05/23 08:28:36;;;;;;;4.33;1.50;;;21.10;53.90;;;;;;5024639;28;20209;-79
2021/05/23 08:31:03;;;;;;;3.50;1.30;;;21.10;53.70;;;;;;5024118;28;20821;-79
2021/05/23 08:33:31;;;;;;;2.60;1.20;;;21.20;53.70;;;;;;5025262;28;20195;-79
2021/05/23 08:35:58;;;;;;;2.83;1.30;;;21.20;53.60;;;;;;5022720;28;20230;-78
2021/05/23 08:38:25;;;;;;;3.70;1.37;;;21.20;53.50;;;;;;5023788;28;20570;-78
2021/05/23 08:40:57;;;;;;;3.20;1.10;;;21.20;53.60;;;;;;5023688;28;20225;-78
2021/05/23 08:43:26;;;;;;;4.67;1.50;;;21.30;53.40;;;;;;5029585;28;20317;-82
2021/05/23 08:45:54;;;;;;;4.40;1.40;;;21.30;53.60;;;;;;5018500;28;20683;-81
2021/05/23 08:48:21;;;;;;;5.57;1.30;;;21.30;53.60;;;;;;5024039;28;20207;-79
2021/05/23 08:50:49;;;;;;;3.70;1.10;;;21.30;53.50;;;;;;5021228;28;20187;-82
2021/05/23 08:53:16;;;;;;;6.20;1.67;;;21.30;53.30;;;;;;5021519;28;20651;-82
2021/05/23 08:55:44;;;;;;;1.93;1.20;;;21.30;53.30;;;;;;5020587;28;20848;-79
2021/05/23 08:58:12;;;;;;;3.83;1.23;;;21.30;53.10;;;;;;5024183;28;20262;-80
2021/05/23 09:00:38;;;;;;;3.47;1.27;;;21.30;53.10;;;;;;5022535;28;20700;-80
2021/05/23 09:03:08;;;;;;;3.67;1.33;;;21.30;53.00;;;;;;5023038;28;20235;-82
2021/05/23 09:05:37;;;;;;;2.03;1.27;;;21.30;53.00;;;;;;5024950;28;20203;-81
2021/05/23 09:08:19;;;;;;;3.07;1.00;;;21.30;52.90;;;;;;5022013;28;20215;-81
2021/05/23 09:10:48;;;;;;;2.87;1.30;;;21.30;52.90;;;;;;5020712;28;20195;-76
2021/05/23 09:13:28;;;;;;;3.10;1.23;;;21.40;52.70;;;;;;5020836;28;20488;-83
2021/05/23 09:16:02;;;;;;;2.47;1.23;;;21.40;52.60;;;;;;5012047;28;20199;-78
2021/05/23 09:18:47;;;;;;;4.43;1.10;;;21.40;52.50;;;;;;5022516;28;20710;-79
2021/05/23 09:21:18;;;;;;;5.70;1.37;;;21.40;52.50;;;;;;5024248;28;20222;-81
2021/05/23 09:23:54;;;;;;;2.20;1.10;;;21.40;52.90;;;;;;5014490;28;20355;-80
2021/05/23 09:26:27;;;;;;;2.70;1.03;;;21.40;52.90;;;;;;5016754;28;20226;-79
2021/05/23 09:29:02;;;;;;;3.47;1.43;;;21.50;52.90;;;;;;5022563;28;20289;-80
2021/05/23 09:31:31;;;;;;;2.97;1.30;;;21.60;53.10;;;;;;5009145;28;20213;-80
2021/05/23 09:34:01;;;;;;;2.47;1.10;;;21.60;52.90;;;;;;4992665;28;20212;-82
2021/05/23 09:36:27;;;;;;;2.20;1.10;;;21.60;52.60;;;;;;5006490;28;20266;-82
2021/05/23 09:38:57;;;;;;;2.83;1.17;;;21.60;52.50;;;;;;5019501;28;20238;-79
2021/05/23 09:41:33;;;;;;;4.00;0.97;;;21.70;52.50;;;;;;5016530;28;20798;-77
2021/05/23 09:44:11;;;;;;;2.43;1.20;;;21.70;52.80;;;;;;5028094;28;20240;-78
2021/05/23 09:47:06;;;;;;;3.17;1.23;;;21.70;52.60;;;;;;5024740;28;20214;-80
2021/05/23 09:49:44;;;;;;;3.67;1.50;;;21.80;52.70;;;;;;5008108;28;20211;-80
2021/05/23 09:52:16;;;;;;;2.87;1.20;;;21.80;52.80;;;;;;4994256;28;20966;-75
2021/05/23 09:54:52;;;;;;;2.57;1.20;;;21.80;52.90;;;;;;5029180;28;20203;-77
2021/05/23 09:57:20;;;;;;;2.70;0.90;;;21.90;53.00;;;;;;5034599;28;20209;-78
2021/05/23 10:00:08;;;;;;;4.37;1.10;;;21.90;53.00;;;;;;5036320;28;20254;-76
2021/05/23 10:03:01;;;;;;;5.17;1.20;;;21.90;53.00;;;;;;5035485;28;20226;-78
2021/05/23 10:05:30;;;;;;;3.83;1.20;;;21.90;52.80;;;;;;5023309;28;20504;-81
2021/05/23 10:08:12;;;;;;;3.20;1.30;;;22.00;52.70;;;;;;5022543;28;20199;-79
2021/05/23 10:10:39;;;;;;;2.23;1.00;;;21.90;53.00;;;;;;5023688;28;20299;-80
2021/05/23 10:13:06;;;;;;;3.23;1.17;;;21.80;52.80;;;;;;5025103;28;20206;-79
2021/05/23 10:15:33;;;;;;;2.17;1.20;;;21.80;53.10;;;;;;5023914;28;20203;-78
2021/05/23 10:17:59;;;;;;;3.53;1.07;;;21.80;53.00;;;;;;5023196;28;20199;-81
2021/05/23 10:20:28;;;;;;;1.27;0.80;;;21.70;52.90;;;;;;5025457;28;20667;-79
2021/05/23 10:22:58;;;;;;;3.87;1.30;;;21.70;52.80;;;;;;5027948;28;20269;-79
2021/05/23 10:25:27;;;;;;;3.37;1.10;;;21.70;52.80;;;;;;5007039;28;20254;-80
2021/05/23 10:27:56;;;;;;;2.13;1.13;;;21.60;52.60;;;;;;5019038;28;20571;-81
2021/05/23 10:30:23;;;;;;;2.10;1.00;;;21.60;52.70;;;;;;4994079;28;20553;-81
2021/05/23 10:32:50;;;;;;;3.27;0.90;;;21.60;52.50;;;;;;5006246;28;20857;-80
2021/05/23 10:35:20;;;;;;;2.07;0.90;;;21.50;52.60;;;;;;5028490;28;20682;-81
2021/05/23 10:37:49;;;;;;;2.23;0.80;;;21.50;52.50;;;;;;5027223;28;20203;-81
2021/05/23 10:40:27;;;;;;;3.33;1.20;;;21.50;53.10;;;;;;5025186;28;20241;-81
2021/05/23 10:42:58;;;;;;;4.17;1.17;;;21.50;53.00;;;;;;5019493;28;20703;-81
2021/05/23 10:45:37;;;;;;;3.63;1.00;;;21.50;53.00;;;;;;5025469;28;20830;-80
2021/05/23 10:48:12;;;;;;;2.50;1.00;;;21.50;53.30;;;;;;5012656;28;20206;-82
2021/05/23 10:50:39;;;;;;;2.97;1.13;;;21.50;53.00;;;;;;5026610;28;20202;-82
2021/05/23 10:53:07;;;;;;;2.67;1.10;;;21.40;52.90;;;;;;5028990;28;20218;-79
2021/05/23 10:55:35;;;;;;;1.87;0.83;;;21.40;52.90;;;;;;5023689;28;20210;-80
2021/05/23 10:58:02;;;;;;;2.10;0.87;;;21.40;53.10;;;;;;5023951;28;20203;-78
2021/05/23 11:00:32;;;;;;;3.57;1.13;;;21.40;53.00;;;;;;5020862;28;20216;-79
2021/05/23 11:03:14;;;;;;;2.03;0.80;;;21.40;52.90;;;;;;5023962;28;20234;-83
2021/05/23 11:05:42;;;;;;;5.60;1.07;;;21.40;52.80;;;;;;5022853;28;20400;-79
2021/05/23 11:08:12;;;;;;;1.83;0.80;;;21.40;52.70;;;;;;5015583;28;20214;-79
2021/05/23 11:10:50;;;;;;;2.73;1.03;;;21.40;52.70;;;;;;5020457;28;20200;-80
2021/05/23 11:13:26;;;;;;;3.60;1.10;;;21.50;52.40;;;;;;5022692;28;20209;-81
2021/05/23 11:15:53;;;;;;;1.63;0.70;;;21.40;52.40;;;;;;5027181;28;20208;-80
2021/05/23 11:18:23;;;;;;;2.73;0.87;;;21.50;52.60;;;;;;5031443;28;20799;-80
2021/05/23 11:20:57;;;;;;;3.20;0.80;;;21.50;52.30;;;;;;5024158;28;20206;-79
2021/05/23 11:23:25;;;;;;;2.27;0.87;;;21.50;52.30;;;;;;5022981;28;20227;-79
2021/05/23 11:26:12;;;;;;;2.13;0.97;;;21.50;52.20;;;;;;5023159;28;20231;-80
2021/05/23 11:28:39;;;;;;;1.57;0.90;;;21.60;52.20;;;;;;5024532;28;20214;-81
2021/05/23 11:31:06;;;;;;;1.50;0.70;;;21.60;51.90;;;;;;5021723;28;20202;-80
2021/05/23 11:33:38;;;;;;;2.40;1.07;;;21.60;51.80;;;;;;5020199;28;20260;-82
2021/05/23 11:36:07;;;;;;;1.47;0.80;;;21.60;51.80;;;;;;5027982;28;20222;-84
2021/05/23 11:38:36;;;;;;;3.17;0.90;;;21.60;51.80;;;;;;5029240;28;20234;-78
2021/05/23 11:41:26;;;;;;;3.83;1.00;;;21.60;52.00;;;;;;5027158;28;20237;-80
2021/05/23 11:43:55;;;;;;;2.30;0.87;;;21.70;52.50;;;;;;5023764;28;20211;-79
2021/05/23 11:46:24;;;;;;;1.03;0.90;;;21.70;51.50;;;;;;5027101;28;20349;-79
2021/05/23 11:48:52;;;;;;;1.47;1.10;;;21.70;51.60;;;;;;5017259;28;20234;-80
2021/05/23 11:51:45;;;;;;;4.10;0.90;;;21.70;51.40;;;;;;5008016;28;20425;-81
2021/05/23 11:54:13;;;;;;;5.87;1.10;;;21.80;51.80;;;;;;5024132;28;20211;-88
2021/05/23 11:56:40;;;;;;;2.90;1.10;;;21.80;52.00;;;;;;5012478;28;20199;-82
2021/05/23 11:59:09;;;;;;;3.10;1.10;;;21.80;51.90;;;;;;5024579;28;20211;-90
2021/05/23 12:01:39;;;;;;;2.47;1.00;;;21.80;51.90;;;;;;5009344;28;20249;-83
2021/05/23 12:04:14;;;;;;;6.23;1.13;;;21.80;51.90;;;;;;5026140;28;20714;-84
2021/05/23 12:06:52;;;;;;;5.40;1.20;;;21.80;51.80;;;;;;5023739;28;20214;-84
2021/05/23 12:09:28;;;;;;;4.17;1.10;;;21.90;52.10;;;;;;5027587;28;20203;-89
2021/05/23 12:12:02;;;;;;;2.40;0.90;;;21.90;52.40;;;;;;5029356;28;20659;-83
2021/05/23 12:14:41;;;;;;;5.80;1.30;;;21.90;51.90;;;;;;5027344;28;20241;-90
2021/05/23 12:17:13;;;;;;;4.37;1.03;;;21.90;51.70;;;;;;5017538;28;20498;-87
2021/05/23 12:19:48;;;;;;;5.17;1.17;;;21.90;51.50;;;;;;5009270;28;20659;-85
2021/05/23 12:22:24;;;;;;;2.47;1.00;;;22.00;51.50;;;;;;5023607;28;20274;-84
2021/05/23 12:24:55;;;;;;;2.43;1.20;;;22.00;51.70;;;;;;5021633;28;20234;-84
2021/05/23 12:28:06;;;;;;;4.57;1.33;;;22.00;51.70;;;;;;5025902;28;20238;-84
2021/05/23 12:30:35;;;;;;;3.50;1.13;;;22.00;52.30;;;;;;4988477;28;20715;-89
2021/05/23 12:33:06;;;;;;;2.40;0.93;;;22.00;51.70;;;;;;5012223;28;20219;-84
2021/05/23 12:35:38;;;;;;;1.73;0.80;;;22.10;51.70;;;;;;5023507;28;20213;-82
2021/05/23 12:38:17;;;;;;;3.17;1.10;;;22.00;51.90;;;;;;5026664;28;20214;-84
2021/05/23 12:40:50;;;;;;;3.70;1.30;;;22.10;51.90;;;;;;5023805;28;20199;-82
2021/05/23 12:43:17;;;;;;;2.50;0.90;;;22.10;51.80;;;;;;5008444;28;20699;-83
2021/05/23 12:45:53;;;;;;;2.57;0.93;;;22.10;52.10;;;;;;5023633;28;20199;-82
2021/05/23 12:48:23;;;;;;;2.57;0.80;;;22.10;52.10;;;;;;5023119;28;20218;-79
2021/05/23 12:50:52;;;;;;;2.20;0.90;;;22.10;51.40;;;;;;5021913;28;20595;-79
2021/05/23 12:53:35;;;;;;;7.67;1.60;;;22.10;51.20;;;;;;5017115;28;20243;-80
2021/05/23 12:56:10;;;;;;;7.40;1.47;;;22.10;51.70;;;;;;5025588;28;20562;-83
2021/05/23 12:58:51;;;;;;;4.93;1.20;;;22.10;51.90;;;;;;5021144;28;20214;-83